createdAt,value
2017-07-18T00:00:38.941Z,0
2017-07-18T00:01:39.642Z,0
2017-07-18T00:02:40.596Z,0
2017-07-18T00:03:41.298Z,0
2017-07-18T00:04:42.001Z,0
2017-07-18T00:05:42.714Z,0
2017-07-18T00:06:43.412Z,0
2017-07-18T00:07:44.113Z,0
2017-07-18T00:08:44.815Z,0
2017-07-18T00:09:45.518Z,0
2017-07-18T00:10:46.221Z,0
2017-07-18T00:11:46.927Z,0
2017-07-18T00:12:47.876Z,0
2017-07-18T00:13:48.580Z,0
2017-07-18T00:14:49.282Z,0
2017-07-18T00:15:49.986Z,0
2017-07-18T00:16:50.686Z,0
2017-07-18T00:17:51.637Z,0
2017-07-18T00:18:52.338Z,0
2017-07-18T00:19:53.040Z,0
2017-07-18T00:20:53.737Z,0
2017-07-18T00:21:54.434Z,0
2017-07-18T00:22:55.401Z,0
2017-07-18T00:23:56.107Z,0
2017-07-18T00:24:56.809Z,0
2017-07-18T00:25:57.517Z,0
2017-07-18T00:26:58.220Z,0
2017-07-18T00:27:59.176Z,0
2017-07-18T00:28:59.877Z,0
2017-07-18T00:30:00.576Z,0
2017-07-18T00:31:01.309Z,0
2017-07-18T00:32:02.008Z,0
2017-07-18T00:33:02.964Z,0
2017-07-18T00:34:03.666Z,0
2017-07-18T00:35:04.374Z,0
2017-07-18T00:36:05.077Z,0
2017-07-18T00:37:05.782Z,0
2017-07-18T00:38:06.736Z,0
2017-07-18T00:39:07.446Z,0
2017-07-18T00:40:08.146Z,0
2017-07-18T00:41:08.848Z,0
2017-07-18T00:42:09.541Z,0
2017-07-18T00:43:10.490Z,0
2017-07-18T00:44:11.190Z,0
2017-07-18T00:45:11.906Z,0
2017-07-18T00:46:12.607Z,0
2017-07-18T00:47:13.310Z,0
2017-07-18T00:48:14.011Z,0
2017-07-18T00:49:14.720Z,0
2017-07-18T00:50:15.425Z,0
2017-07-18T00:51:16.125Z,0
2017-07-18T00:52:16.825Z,0
2017-07-18T00:53:17.779Z,0
2017-07-18T00:54:18.483Z,0
2017-07-18T00:55:19.183Z,0
2017-07-18T00:56:19.896Z,0
2017-07-18T00:57:20.600Z,0
2017-07-18T00:58:21.551Z,0
2017-07-18T00:59:22.260Z,0
2017-07-18T01:00:22.962Z,0
2017-07-18T01:01:23.667Z,0
2017-07-18T01:02:24.565Z,0
2017-07-18T01:03:25.524Z,0
2017-07-18T01:04:26.228Z,0
2017-07-18T01:05:26.950Z,0
2017-07-18T01:06:27.649Z,0
2017-07-18T01:07:28.348Z,0
2017-07-18T01:08:29.297Z,0
2017-07-18T01:09:29.997Z,0
2017-07-18T01:10:30.696Z,0
2017-07-18T01:11:31.398Z,0
2017-07-18T01:12:32.105Z,0
2017-07-18T01:13:33.056Z,0
2017-07-18T01:14:33.753Z,0
2017-07-18T01:15:34.453Z,0
2017-07-18T01:16:35.151Z,0
2017-07-18T01:17:35.852Z,0
2017-07-18T01:18:36.805Z,0
2017-07-18T01:19:37.505Z,0
2017-07-18T01:20:38.202Z,0
2017-07-18T01:21:38.900Z,0
2017-07-18T01:22:39.603Z,0
2017-07-18T01:23:40.554Z,0
2017-07-18T01:24:41.261Z,0
2017-07-18T01:25:41.957Z,0
2017-07-18T01:26:42.661Z,0
2017-07-18T01:27:43.361Z,0
2017-07-18T01:28:44.314Z,0
2017-07-18T01:29:45.025Z,0
2017-07-18T01:30:45.728Z,0
2017-07-18T01:31:46.430Z,0
2017-07-18T01:32:47.130Z,0
2017-07-18T01:33:48.082Z,0
2017-07-18T01:34:48.788Z,0
2017-07-18T01:35:49.503Z,0
2017-07-18T01:36:50.203Z,0
2017-07-18T01:37:50.961Z,0
2017-07-18T01:38:51.921Z,0
2017-07-18T01:39:52.627Z,0
2017-07-18T01:40:53.329Z,0
2017-07-18T01:41:54.026Z,0
2017-07-18T01:42:54.724Z,0
2017-07-18T01:43:55.674Z,0
2017-07-18T01:44:56.375Z,0
2017-07-18T01:45:57.079Z,0
2017-07-18T01:46:57.777Z,0
2017-07-18T01:47:58.487Z,0
2017-07-18T01:48:59.441Z,0
2017-07-18T01:50:00.141Z,0
2017-07-18T01:51:00.845Z,0
2017-07-18T01:52:01.548Z,0
2017-07-18T01:53:02.258Z,0
2017-07-18T01:54:03.210Z,0
2017-07-18T01:55:03.917Z,0
2017-07-18T01:56:04.619Z,0
2017-07-18T01:57:05.326Z,0
2017-07-18T01:58:06.025Z,0
2017-07-18T01:59:06.974Z,0
2017-07-18T02:00:07.676Z,0
2017-07-18T02:01:08.376Z,0
2017-07-18T02:02:09.077Z,0
2017-07-18T02:03:09.775Z,0
2017-07-18T02:04:10.732Z,0
2017-07-18T02:05:11.433Z,0
2017-07-18T02:06:12.136Z,0
2017-07-18T02:07:12.838Z,0
2017-07-18T02:08:13.543Z,0
2017-07-18T02:09:14.499Z,0
2017-07-18T02:10:15.201Z,0
2017-07-18T02:11:15.902Z,0
2017-07-18T02:12:16.605Z,0
2017-07-18T02:13:17.304Z,0
2017-07-18T02:14:18.259Z,0
2017-07-18T02:15:18.965Z,0
2017-07-18T02:16:19.666Z,0
2017-07-18T02:17:20.364Z,0
2017-07-18T02:18:21.064Z,0
2017-07-18T02:19:22.011Z,0
2017-07-18T02:20:22.708Z,0
2017-07-18T02:21:23.411Z,0
2017-07-18T02:22:24.115Z,0
2017-07-18T02:23:24.823Z,0
2017-07-18T02:24:25.780Z,0
2017-07-18T02:25:26.481Z,0
2017-07-18T02:26:27.181Z,0
2017-07-18T02:27:27.880Z,0
2017-07-18T02:28:28.581Z,0
2017-07-18T02:29:29.530Z,0
2017-07-18T02:30:30.229Z,0
2017-07-18T02:31:30.934Z,0
2017-07-18T02:32:31.639Z,0
2017-07-18T02:33:32.341Z,0
2017-07-18T02:34:33.295Z,0
2017-07-18T02:35:33.996Z,0
2017-07-18T02:36:34.697Z,0
2017-07-18T02:37:35.399Z,0
2017-07-18T02:38:36.105Z,0
2017-07-18T02:39:36.813Z,0
2017-07-18T02:40:37.525Z,0
2017-07-18T02:41:38.231Z,0
2017-07-18T02:42:38.934Z,0
2017-07-18T02:43:39.634Z,0
2017-07-18T02:44:40.604Z,0
2017-07-18T02:45:41.316Z,0
2017-07-18T02:46:42.018Z,0
2017-07-18T02:47:42.720Z,0
2017-07-18T02:48:43.419Z,0
2017-07-18T02:49:44.371Z,0
2017-07-18T02:50:45.074Z,0
2017-07-18T02:51:45.769Z,0
2017-07-18T02:52:46.468Z,0
2017-07-18T02:53:47.169Z,0
2017-07-18T02:54:48.120Z,0
2017-07-18T02:55:48.823Z,0
2017-07-18T02:56:49.520Z,0
2017-07-18T02:57:50.219Z,0
2017-07-18T02:58:50.921Z,0
2017-07-18T02:59:51.869Z,0
2017-07-18T03:00:52.565Z,0
2017-07-18T03:01:53.263Z,0
2017-07-18T03:02:53.988Z,4
2017-07-18T03:03:54.687Z,4
2017-07-18T03:04:55.388Z,4
2017-07-18T03:05:56.093Z,0
2017-07-18T03:06:56.844Z,4
2017-07-18T03:07:57.557Z,4
2017-07-18T03:08:58.257Z,4
2017-07-18T03:09:59.204Z,4
2017-07-18T03:10:59.914Z,4
2017-07-18T03:12:00.614Z,8
2017-07-18T03:13:01.317Z,8
2017-07-18T03:14:02.021Z,8
2017-07-18T03:15:02.974Z,12
2017-07-18T03:16:03.674Z,16
2017-07-18T03:17:04.371Z,12
2017-07-18T03:18:05.070Z,16
2017-07-18T03:19:05.767Z,20
2017-07-18T03:20:06.719Z,20
2017-07-18T03:21:07.421Z,24
2017-07-18T03:22:08.124Z,32
2017-07-18T03:23:08.825Z,36
2017-07-18T03:24:09.536Z,36
2017-07-18T03:25:10.492Z,40
2017-07-18T03:26:11.194Z,48
2017-07-18T03:27:11.896Z,52
2017-07-18T03:28:12.603Z,56
2017-07-18T03:29:13.310Z,64
2017-07-18T03:30:14.266Z,76
2017-07-18T03:31:14.969Z,80
2017-07-18T03:32:15.666Z,88
2017-07-18T03:33:16.364Z,96
2017-07-18T03:34:17.065Z,104
2017-07-18T03:35:18.016Z,116
2017-07-18T03:36:18.720Z,124
2017-07-18T03:37:19.422Z,136
2017-07-18T03:38:20.123Z,144
2017-07-18T03:39:20.832Z,152
2017-07-18T03:40:21.781Z,168
2017-07-18T03:41:22.484Z,180
2017-07-18T03:42:23.186Z,192
2017-07-18T03:43:23.891Z,200
2017-07-18T03:44:24.594Z,216
2017-07-18T03:45:25.548Z,228
2017-07-18T03:46:26.262Z,236
2017-07-18T03:47:26.962Z,252
2017-07-18T03:48:27.690Z,264
2017-07-18T03:49:28.397Z,280
2017-07-18T03:50:29.346Z,292
2017-07-18T03:51:30.050Z,304
2017-07-18T03:52:30.753Z,320
2017-07-18T03:53:31.461Z,332
2017-07-18T03:54:32.160Z,344
2017-07-18T03:55:33.112Z,356
2017-07-18T03:56:33.812Z,372
2017-07-18T03:57:34.530Z,388
2017-07-18T03:58:35.231Z,400
2017-07-18T03:59:35.941Z,412
2017-07-18T04:00:36.897Z,428
2017-07-18T04:01:37.600Z,444
2017-07-18T04:02:38.307Z,456
2017-07-18T04:03:39.014Z,468
2017-07-18T04:04:39.728Z,484
2017-07-18T04:05:40.689Z,496
2017-07-18T04:06:41.389Z,508
2017-07-18T04:07:42.094Z,524
2017-07-18T04:08:42.801Z,536
2017-07-18T04:09:43.504Z,548
2017-07-18T04:10:44.459Z,560
2017-07-18T04:11:45.167Z,576
2017-07-18T04:12:45.873Z,592
2017-07-18T04:13:46.590Z,600
2017-07-18T04:14:47.293Z,616
2017-07-18T04:15:48.245Z,632
2017-07-18T04:16:48.949Z,640
2017-07-18T04:17:49.664Z,652
2017-07-18T04:18:50.370Z,664
2017-07-18T04:19:51.071Z,672
2017-07-18T04:20:52.022Z,684
2017-07-18T04:21:52.728Z,700
2017-07-18T04:22:53.431Z,712
2017-07-18T04:23:54.132Z,720
2017-07-18T04:24:54.833Z,732
2017-07-18T04:25:55.795Z,744
2017-07-18T04:26:56.499Z,868
2017-07-18T04:27:57.204Z,876
2017-07-18T04:28:57.906Z,888
2017-07-18T04:29:58.609Z,900
2017-07-18T04:30:59.566Z,892
2017-07-18T04:32:00.285Z,880
2017-07-18T04:33:00.998Z,896
2017-07-18T04:34:01.701Z,932
2017-07-18T04:35:02.404Z,976
2017-07-18T04:36:03.358Z,1004
2017-07-18T04:37:04.062Z,1012
2017-07-18T04:38:04.766Z,1020
2017-07-18T04:39:05.475Z,1032
2017-07-18T04:40:06.176Z,1044
2017-07-18T04:41:07.132Z,1056
2017-07-18T04:42:07.838Z,1068
2017-07-18T04:43:08.543Z,1080
2017-07-18T04:44:09.246Z,1092
2017-07-18T04:45:09.950Z,1104
2017-07-18T04:46:10.753Z,1112
2017-07-18T04:47:11.457Z,1124
2017-07-18T04:48:12.163Z,1136
2017-07-18T04:49:12.875Z,1104
2017-07-18T04:50:13.581Z,1112
2017-07-18T04:51:14.546Z,1120
2017-07-18T04:52:15.261Z,1132
2017-07-18T04:53:15.973Z,1144
2017-07-18T04:54:16.687Z,1148
2017-07-18T04:55:17.391Z,1160
2017-07-18T04:56:18.348Z,1164
2017-07-18T04:57:19.051Z,1176
2017-07-18T04:58:19.758Z,1184
2017-07-18T04:59:20.462Z,1192
2017-07-18T05:00:21.170Z,1196
2017-07-18T05:01:22.127Z,1208
2017-07-18T05:02:22.829Z,1216
2017-07-18T05:03:23.532Z,1220
2017-07-18T05:04:24.242Z,1232
2017-07-18T05:05:24.945Z,1240
2017-07-18T05:06:25.948Z,1248
2017-07-18T05:07:26.658Z,1256
2017-07-18T05:08:27.359Z,1260
2017-07-18T05:09:28.064Z,1268
2017-07-18T05:10:28.767Z,1280
2017-07-18T05:11:29.721Z,1284
2017-07-18T05:12:30.432Z,1288
2017-07-18T05:13:31.136Z,1300
2017-07-18T05:14:31.838Z,1304
2017-07-18T05:15:32.544Z,1312
2017-07-18T05:16:33.505Z,1312
2017-07-18T05:17:34.206Z,1324
2017-07-18T05:18:34.912Z,1332
2017-07-18T05:19:35.616Z,1404
2017-07-18T05:20:36.321Z,1212
2017-07-18T05:21:37.274Z,1324
2017-07-18T05:22:37.977Z,1328
2017-07-18T05:23:38.679Z,1336
2017-07-18T05:24:39.385Z,1344
2017-07-18T05:25:40.093Z,1348
2017-07-18T05:26:41.059Z,1352
2017-07-18T05:27:41.764Z,1356
2017-07-18T05:28:42.470Z,1360
2017-07-18T05:29:43.178Z,1368
2017-07-18T05:30:43.887Z,1372
2017-07-18T05:31:44.854Z,1376
2017-07-18T05:32:45.574Z,1384
2017-07-18T05:33:46.275Z,1392
2017-07-18T05:34:46.978Z,1400
2017-07-18T05:35:47.678Z,1408
2017-07-18T05:36:48.634Z,1416
2017-07-18T05:37:49.337Z,1420
2017-07-18T05:38:50.047Z,1424
2017-07-18T05:39:50.765Z,1428
2017-07-18T05:40:51.470Z,1432
2017-07-18T05:41:52.425Z,1440
2017-07-18T05:42:53.128Z,1444
2017-07-18T05:43:53.827Z,1448
2017-07-18T05:44:54.529Z,1452
2017-07-18T05:45:55.234Z,1456
2017-07-18T05:46:56.187Z,1456
2017-07-18T05:47:56.889Z,1464
2017-07-18T05:48:57.597Z,1472
2017-07-18T05:49:58.302Z,1472
2017-07-18T05:50:59.009Z,1480
2017-07-18T05:51:59.960Z,1484
2017-07-18T05:53:00.688Z,1488
2017-07-18T05:54:01.394Z,1492
2017-07-18T05:55:02.107Z,1496
2017-07-18T05:56:02.819Z,1504
2017-07-18T05:57:03.775Z,1504
2017-07-18T05:58:04.481Z,1512
2017-07-18T05:59:05.183Z,1516
2017-07-18T06:00:05.891Z,1524
2017-07-18T06:01:06.598Z,1524
2017-07-18T06:02:07.561Z,1532
2017-07-18T06:03:08.268Z,1532
2017-07-18T06:04:08.972Z,1536
2017-07-18T06:05:09.678Z,1540
2017-07-18T06:06:10.386Z,1544
2017-07-18T06:07:11.341Z,1544
2017-07-18T06:08:12.052Z,1548
2017-07-18T06:09:12.760Z,1552
2017-07-18T06:10:13.467Z,1556
2017-07-18T06:11:14.179Z,1560
2017-07-18T06:12:15.143Z,1564
2017-07-18T06:13:15.851Z,1572
2017-07-18T06:14:16.556Z,1572
2017-07-18T06:15:17.270Z,1576
2017-07-18T06:16:17.976Z,1580
2017-07-18T06:17:18.936Z,1584
2017-07-18T06:18:19.643Z,1588
2017-07-18T06:19:20.350Z,1588
2017-07-18T06:20:21.057Z,1592
2017-07-18T06:21:21.769Z,1596
2017-07-18T06:22:22.721Z,1600
2017-07-18T06:23:23.426Z,1600
2017-07-18T06:24:24.130Z,1608
2017-07-18T06:25:24.837Z,1608
2017-07-18T06:26:25.537Z,1616
2017-07-18T06:27:26.495Z,1616
2017-07-18T06:28:27.201Z,1620
2017-07-18T06:29:27.915Z,1628
2017-07-18T06:30:28.620Z,1628
2017-07-18T06:31:29.325Z,1632
2017-07-18T06:32:30.281Z,1632
2017-07-18T06:33:30.985Z,1640
2017-07-18T06:34:31.696Z,1644
2017-07-18T06:35:32.399Z,1648
2017-07-18T06:36:33.113Z,1648
2017-07-18T06:37:34.077Z,1652
2017-07-18T06:38:34.783Z,1660
2017-07-18T06:39:35.494Z,1660
2017-07-18T06:40:36.202Z,1664
2017-07-18T06:41:36.906Z,1668
2017-07-18T06:42:37.863Z,1668
2017-07-18T06:43:38.568Z,1672
2017-07-18T06:44:39.274Z,1676
2017-07-18T06:45:39.979Z,1680
2017-07-18T06:46:40.686Z,1688
2017-07-18T06:47:41.655Z,1688
2017-07-18T06:48:42.356Z,1692
2017-07-18T06:49:43.069Z,1692
2017-07-18T06:50:43.781Z,1696
2017-07-18T06:51:44.490Z,1696
2017-07-18T06:52:45.446Z,1700
2017-07-18T06:53:46.163Z,1700
2017-07-18T06:54:46.873Z,1700
2017-07-18T06:55:47.599Z,1704
2017-07-18T06:56:48.304Z,1708
2017-07-18T06:57:49.280Z,1712
2017-07-18T06:58:49.986Z,1716
2017-07-18T06:59:50.690Z,1716
2017-07-18T07:00:51.394Z,1724
2017-07-18T07:01:52.113Z,1728
2017-07-18T07:02:53.070Z,1728
2017-07-18T07:03:53.785Z,1736
2017-07-18T07:04:54.489Z,1736
2017-07-18T07:05:55.196Z,1740
2017-07-18T07:06:55.904Z,1744
2017-07-18T07:07:56.865Z,1744
2017-07-18T07:08:57.575Z,1748
2017-07-18T07:09:58.279Z,1756
2017-07-18T07:10:58.990Z,1760
2017-07-18T07:11:59.697Z,1764
2017-07-18T07:13:00.651Z,1772
2017-07-18T07:14:01.360Z,1776
2017-07-18T07:15:02.064Z,1780
2017-07-18T07:16:02.776Z,1780
2017-07-18T07:17:03.486Z,1784
2017-07-18T07:18:04.459Z,1796
2017-07-18T07:19:05.174Z,1796
2017-07-18T07:20:05.883Z,1796
2017-07-18T07:21:06.587Z,1800
2017-07-18T07:22:07.298Z,1808
2017-07-18T07:23:08.253Z,1808
2017-07-18T07:24:08.966Z,1816
2017-07-18T07:25:09.677Z,1812
2017-07-18T07:26:10.385Z,1816
2017-07-18T07:27:11.101Z,1824
2017-07-18T07:28:11.809Z,1828
2017-07-18T07:29:12.518Z,1832
2017-07-18T07:30:13.226Z,1840
2017-07-18T07:31:13.934Z,1844
2017-07-18T07:32:14.638Z,1848
2017-07-18T07:33:15.592Z,1856
2017-07-18T07:34:16.307Z,1856
2017-07-18T07:35:17.036Z,1860
2017-07-18T07:36:17.745Z,1864
2017-07-18T07:37:18.448Z,1868
2017-07-18T07:38:19.403Z,1872
2017-07-18T07:39:20.107Z,1880
2017-07-18T07:40:20.813Z,1888
2017-07-18T07:41:21.518Z,1892
2017-07-18T07:42:22.236Z,1892
2017-07-18T07:43:23.196Z,1896
2017-07-18T07:44:23.908Z,1904
2017-07-18T07:45:24.614Z,1912
2017-07-18T07:46:25.321Z,1916
2017-07-18T07:47:26.025Z,1920
2017-07-18T07:48:26.989Z,1924
2017-07-18T07:49:27.700Z,1928
2017-07-18T07:50:28.408Z,1936
2017-07-18T07:51:29.071Z,1940
2017-07-18T07:52:29.813Z,1944
2017-07-18T07:53:30.768Z,1956
2017-07-18T07:54:31.476Z,1960
2017-07-18T07:55:32.186Z,1964
2017-07-18T07:56:32.894Z,1972
2017-07-18T07:57:33.605Z,1976
2017-07-18T07:58:34.564Z,1980
2017-07-18T07:59:35.275Z,1984
2017-07-18T08:00:35.983Z,1992
2017-07-18T08:01:36.690Z,2004
2017-07-18T08:02:37.396Z,2004
2017-07-18T08:03:38.355Z,2016
2017-07-18T08:04:39.062Z,2024
2017-07-18T08:05:39.770Z,2028
2017-07-18T08:06:40.477Z,2028
2017-07-18T08:07:41.187Z,2036
2017-07-18T08:08:42.148Z,2052
2017-07-18T08:09:42.854Z,2060
2017-07-18T08:10:43.561Z,2064
2017-07-18T08:11:44.268Z,2064
2017-07-18T08:12:44.980Z,2072
2017-07-18T08:13:45.942Z,2076
2017-07-18T08:14:46.649Z,2084
2017-07-18T08:15:47.360Z,2088
2017-07-18T08:16:48.068Z,2096
2017-07-18T08:17:48.782Z,2096
2017-07-18T08:18:49.740Z,2104
2017-07-18T08:19:50.453Z,2112
2017-07-18T08:20:51.160Z,2120
2017-07-18T08:21:51.869Z,2128
2017-07-18T08:22:52.574Z,2132
2017-07-18T08:23:53.529Z,2144
2017-07-18T08:24:54.242Z,2148
2017-07-18T08:25:54.946Z,2152
2017-07-18T08:26:55.657Z,2160
2017-07-18T08:27:56.372Z,2160
2017-07-18T08:28:57.333Z,2168
2017-07-18T08:29:58.041Z,2176
2017-07-18T08:30:58.745Z,2176
2017-07-18T08:31:59.456Z,2188
2017-07-18T08:33:00.162Z,2196
2017-07-18T08:34:01.119Z,2212
2017-07-18T08:35:01.822Z,2220
2017-07-18T08:36:02.527Z,2220
2017-07-18T08:37:03.241Z,2224
2017-07-18T08:38:03.946Z,2228
2017-07-18T08:39:04.902Z,2240
2017-07-18T08:40:05.610Z,2248
2017-07-18T08:41:06.317Z,2264
2017-07-18T08:42:07.035Z,2268
2017-07-18T08:43:07.744Z,2280
2017-07-18T08:44:08.706Z,2292
2017-07-18T08:45:09.411Z,2304
2017-07-18T08:46:10.126Z,2312
2017-07-18T08:47:10.837Z,2316
2017-07-18T08:48:11.543Z,2324
2017-07-18T08:49:12.502Z,2336
2017-07-18T08:50:13.219Z,2348
2017-07-18T08:51:13.930Z,2360
2017-07-18T08:52:14.636Z,2380
2017-07-18T08:53:15.341Z,2396
2017-07-18T08:54:16.299Z,2392
2017-07-18T08:55:17.014Z,2384
2017-07-18T08:56:17.724Z,2388
2017-07-18T08:57:18.444Z,2396
2017-07-18T08:58:19.186Z,2408
2017-07-18T08:59:20.144Z,2412
2017-07-18T09:00:20.849Z,2420
2017-07-18T09:01:21.560Z,2440
2017-07-18T09:02:22.270Z,2452
2017-07-18T09:03:22.979Z,2456
2017-07-18T09:04:23.689Z,2464
2017-07-18T09:05:24.397Z,2472
2017-07-18T09:06:25.103Z,2480
2017-07-18T09:07:25.814Z,2480
2017-07-18T09:08:26.521Z,2488
2017-07-18T09:09:27.474Z,2492
2017-07-18T09:10:28.184Z,2496
2017-07-18T09:11:28.892Z,2504
2017-07-18T09:12:29.599Z,2512
2017-07-18T09:13:30.304Z,2516
2017-07-18T09:14:31.266Z,2520
2017-07-18T09:15:31.975Z,2532
2017-07-18T09:16:32.692Z,2544
2017-07-18T09:17:33.399Z,2560
2017-07-18T09:18:34.107Z,2572
2017-07-18T09:19:35.064Z,2592
2017-07-18T09:20:35.779Z,2596
2017-07-18T09:21:36.487Z,2600
2017-07-18T09:22:37.197Z,2604
2017-07-18T09:23:37.906Z,2628
2017-07-18T09:24:38.862Z,2632
2017-07-18T09:25:39.568Z,2644
2017-07-18T09:26:40.281Z,2648
2017-07-18T09:27:40.988Z,2648
2017-07-18T09:28:41.701Z,2660
2017-07-18T09:29:42.666Z,2676
2017-07-18T09:30:43.375Z,2688
2017-07-18T09:31:44.084Z,2692
2017-07-18T09:32:44.786Z,2708
2017-07-18T09:33:45.499Z,2724
2017-07-18T09:34:46.484Z,2732
2017-07-18T09:35:47.195Z,2744
2017-07-18T09:36:47.904Z,2764
2017-07-18T09:37:48.616Z,2784
2017-07-18T09:38:49.322Z,2804
2017-07-18T09:39:50.281Z,2820
2017-07-18T09:40:50.986Z,2836
2017-07-18T09:41:51.693Z,2852
2017-07-18T09:42:52.406Z,2852
2017-07-18T09:43:53.112Z,2852
2017-07-18T09:44:54.074Z,2864
2017-07-18T09:45:54.789Z,2864
2017-07-18T09:46:55.498Z,2900
2017-07-18T09:47:56.204Z,2932
2017-07-18T09:48:56.909Z,2960
2017-07-18T09:49:57.867Z,2972
2017-07-18T09:50:58.583Z,2972
2017-07-18T09:51:59.300Z,2996
2017-07-18T09:53:00.014Z,3012
2017-07-18T09:54:00.730Z,2964
2017-07-18T09:55:01.704Z,2984
2017-07-18T09:56:02.419Z,3040
2017-07-18T09:57:03.126Z,3088
2017-07-18T09:58:03.833Z,3100
2017-07-18T09:59:04.540Z,3108
2017-07-18T10:00:05.509Z,3176
2017-07-18T10:01:06.217Z,3212
2017-07-18T10:02:06.930Z,3220
2017-07-18T10:03:07.647Z,3180
2017-07-18T10:04:08.354Z,3208
2017-07-18T10:05:09.310Z,3256
2017-07-18T10:06:10.021Z,3284
2017-07-18T10:07:10.734Z,3292
2017-07-18T10:08:11.444Z,3308
2017-07-18T10:09:12.164Z,3340
2017-07-18T10:10:13.135Z,3352
2017-07-18T10:11:13.840Z,3340
2017-07-18T10:12:14.548Z,3328
2017-07-18T10:13:15.257Z,3308
2017-07-18T10:14:15.966Z,3344
2017-07-18T10:15:16.925Z,3304
2017-07-18T10:16:17.635Z,3344
2017-07-18T10:17:18.342Z,3408
2017-07-18T10:18:19.051Z,3476
2017-07-18T10:19:19.782Z,3532
2017-07-18T10:20:20.751Z,3552
2017-07-18T10:21:21.457Z,3524
2017-07-18T10:22:22.168Z,3528
2017-07-18T10:23:22.879Z,3552
2017-07-18T10:24:23.587Z,3576
2017-07-18T10:25:24.296Z,3612
2017-07-18T10:26:25.008Z,3628
2017-07-18T10:27:25.716Z,3608
2017-07-18T10:28:26.421Z,3640
2017-07-18T10:29:27.130Z,3692
2017-07-18T10:30:28.100Z,3740
2017-07-18T10:31:28.818Z,3772
2017-07-18T10:32:29.525Z,3804
2017-07-18T10:33:30.238Z,3832
2017-07-18T10:34:30.945Z,3852
2017-07-18T10:35:31.908Z,3840
2017-07-18T10:36:32.623Z,3852
2017-07-18T10:37:33.334Z,3876
2017-07-18T10:38:34.041Z,3920
2017-07-18T10:39:34.751Z,3956
2017-07-18T10:40:35.710Z,3932
2017-07-18T10:41:36.423Z,3956
2017-07-18T10:42:37.130Z,4016
2017-07-18T10:43:37.840Z,4048
2017-07-18T10:44:38.550Z,4060
2017-07-18T10:45:39.511Z,4080
2017-07-18T10:46:40.224Z,4120
2017-07-18T10:47:40.944Z,4176
2017-07-18T10:48:41.656Z,4196
2017-07-18T10:49:42.368Z,4196
2017-07-18T10:50:43.329Z,4176
2017-07-18T10:51:44.035Z,4200
2017-07-18T10:52:44.744Z,4216
2017-07-18T10:53:45.449Z,4224
2017-07-18T10:54:46.159Z,4224
2017-07-18T10:55:47.120Z,4232
2017-07-18T10:56:47.830Z,4300
2017-07-18T10:57:48.540Z,4320
2017-07-18T10:58:49.256Z,4332
2017-07-18T10:59:49.984Z,4344
2017-07-18T11:00:50.944Z,4380
2017-07-18T11:01:51.649Z,4396
2017-07-18T11:02:52.376Z,4436
2017-07-18T11:03:53.084Z,4484
2017-07-18T11:04:53.801Z,4532
2017-07-18T11:05:54.772Z,4556
2017-07-18T11:06:55.480Z,4576
2017-07-18T11:07:56.191Z,4584
2017-07-18T11:08:56.899Z,4628
2017-07-18T11:09:57.608Z,4684
2017-07-18T11:10:58.572Z,4756
2017-07-18T11:11:59.292Z,4820
2017-07-18T11:13:00.001Z,4924
2017-07-18T11:14:00.715Z,5000
2017-07-18T11:15:01.420Z,5000
2017-07-18T11:16:02.382Z,5068
2017-07-18T11:17:03.091Z,5144
2017-07-18T11:18:03.802Z,5140
2017-07-18T11:19:04.512Z,5148
2017-07-18T11:20:05.230Z,5212
2017-07-18T11:21:06.192Z,5260
2017-07-18T11:22:06.904Z,5284
2017-07-18T11:23:07.616Z,5220
2017-07-18T11:24:08.326Z,5188
2017-07-18T11:25:09.036Z,5248
2017-07-18T11:26:09.993Z,5316
2017-07-18T11:27:10.701Z,5348
2017-07-18T11:28:11.413Z,5288
2017-07-18T11:29:12.110Z,5320
2017-07-18T11:30:12.823Z,5352
2017-07-18T11:31:13.784Z,5380
2017-07-18T11:32:14.491Z,5444
2017-07-18T11:33:15.201Z,5508
2017-07-18T11:34:15.909Z,5536
2017-07-18T11:35:16.621Z,5516
2017-07-18T11:36:17.594Z,5616
2017-07-18T11:37:18.306Z,5740
2017-07-18T11:38:19.019Z,5956
2017-07-18T11:39:19.734Z,6168
2017-07-18T11:40:20.444Z,6336
2017-07-18T11:41:21.406Z,6380
2017-07-18T11:42:22.117Z,6336
2017-07-18T11:43:22.825Z,6300
2017-07-18T11:44:23.441Z,6284
2017-07-18T11:45:24.235Z,6284
2017-07-18T11:46:25.196Z,6284
2017-07-18T11:47:25.904Z,6412
2017-07-18T11:48:26.617Z,5048
2017-07-18T11:49:27.346Z,5452
2017-07-18T11:50:28.062Z,6504
2017-07-18T11:51:29.023Z,6620
2017-07-18T11:52:29.732Z,6768
2017-07-18T11:53:30.440Z,6844
2017-07-18T11:54:31.152Z,6916
2017-07-18T11:55:31.861Z,6936
2017-07-18T11:56:32.821Z,6944
2017-07-18T11:57:33.528Z,6980
2017-07-18T11:58:34.239Z,7120
2017-07-18T11:59:34.957Z,7300
2017-07-18T12:00:35.669Z,7332
2017-07-18T12:01:36.632Z,7404
2017-07-18T12:02:37.347Z,7588
2017-07-18T12:03:38.063Z,7696
2017-07-18T12:04:38.777Z,7648
2017-07-18T12:05:39.488Z,7624
2017-07-18T12:06:40.450Z,7544
2017-07-18T12:07:41.172Z,7456
2017-07-18T12:08:41.884Z,7368
2017-07-18T12:09:42.596Z,7336
2017-07-18T12:10:43.307Z,7316
2017-07-18T12:11:44.268Z,7316
2017-07-18T12:12:44.981Z,7316
2017-07-18T12:13:45.692Z,7316
2017-07-18T12:14:46.409Z,7412
2017-07-18T12:15:47.121Z,7480
2017-07-18T12:16:47.832Z,7520
2017-07-18T12:17:48.544Z,7720
2017-07-18T12:18:49.257Z,7968
2017-07-18T12:19:49.968Z,8088
2017-07-18T12:20:50.678Z,8156
2017-07-18T12:21:51.636Z,8216
2017-07-18T12:22:52.353Z,8460
2017-07-18T12:23:53.063Z,8612
2017-07-18T12:24:53.786Z,8824
2017-07-18T12:25:54.496Z,9012
2017-07-18T12:26:55.208Z,9136
2017-07-18T12:27:55.921Z,9228
2017-07-18T12:28:56.630Z,9336
2017-07-18T12:29:57.348Z,9328
2017-07-18T12:30:58.076Z,9384
2017-07-18T12:31:59.036Z,9160
2017-07-18T12:32:59.749Z,8916
2017-07-18T12:34:00.462Z,9028
2017-07-18T12:35:01.190Z,9128
2017-07-18T12:36:01.910Z,9048
2017-07-18T12:37:02.871Z,8944
2017-07-18T12:38:03.588Z,8992
2017-07-18T12:39:04.303Z,9016
2017-07-18T12:40:05.021Z,9148
2017-07-18T12:41:05.732Z,9344
2017-07-18T12:42:06.695Z,9348
2017-07-18T12:43:07.411Z,9376
2017-07-18T12:44:08.124Z,8952
2017-07-18T12:45:08.842Z,9060
2017-07-18T12:46:09.558Z,9204
2017-07-18T12:47:10.523Z,9268
2017-07-18T12:48:11.237Z,9260
2017-07-18T12:49:11.946Z,9240
2017-07-18T12:50:12.660Z,9140
2017-07-18T12:51:13.371Z,9076
2017-07-18T12:52:14.331Z,9056
2017-07-18T12:53:15.044Z,9040
2017-07-18T12:54:15.757Z,9040
2017-07-18T12:55:16.469Z,9128
2017-07-18T12:56:17.186Z,9132
2017-07-18T12:57:18.152Z,9132
2017-07-18T12:58:18.863Z,9140
2017-07-18T12:59:19.574Z,9244
2017-07-18T13:00:20.287Z,9488
2017-07-18T13:01:20.999Z,9592
2017-07-18T13:02:21.960Z,9672
2017-07-18T13:03:22.673Z,9744
2017-07-18T13:04:23.386Z,9732
2017-07-18T13:05:24.098Z,9892
2017-07-18T13:06:24.814Z,10088
2017-07-18T13:07:25.782Z,10020
2017-07-18T13:08:26.512Z,9716
2017-07-18T13:09:27.245Z,9652
2017-07-18T13:10:27.955Z,9612
2017-07-18T13:11:28.667Z,9712
2017-07-18T13:12:29.629Z,9940
2017-07-18T13:13:30.340Z,9872
2017-07-18T13:14:31.051Z,9832
2017-07-18T13:15:31.764Z,9800
2017-07-18T13:16:32.478Z,9724
2017-07-18T13:17:33.460Z,9680
2017-07-18T13:18:34.171Z,9628
2017-07-18T13:19:34.894Z,9516
2017-07-18T13:20:35.603Z,9552
2017-07-18T13:21:36.316Z,9588
2017-07-18T13:22:37.278Z,9640
2017-07-18T13:23:37.989Z,9628
2017-07-18T13:24:38.710Z,9564
2017-07-18T13:25:39.431Z,9524
2017-07-18T13:26:40.114Z,9580
2017-07-18T13:27:41.096Z,9732
2017-07-18T13:28:41.804Z,9868
2017-07-18T13:29:42.514Z,10016
2017-07-18T13:30:43.226Z,10220
2017-07-18T13:31:43.947Z,10436
2017-07-18T13:32:44.908Z,10728
2017-07-18T13:33:45.620Z,10896
2017-07-18T13:34:46.331Z,10812
2017-07-18T13:35:47.049Z,10776
2017-07-18T13:36:47.763Z,10792
2017-07-18T13:37:48.732Z,10836
2017-07-18T13:38:49.452Z,10856
2017-07-18T13:39:50.165Z,10824
2017-07-18T13:40:50.875Z,10848
2017-07-18T13:41:51.596Z,11072
2017-07-18T13:42:52.559Z,11168
2017-07-18T13:43:53.271Z,11060
2017-07-18T13:44:53.994Z,10924
2017-07-18T13:45:54.712Z,10956
2017-07-18T13:46:55.423Z,11016
2017-07-18T13:47:56.134Z,10948
2017-07-18T13:48:56.858Z,11108
2017-07-18T13:49:57.573Z,11232
2017-07-18T13:50:58.293Z,11552